Time;durP1;ratioP1;P1;durP2;ratioP2;P2;SDS_P1;SDS_P2;PMS_P1;PMS_P2;Temp;Humidity;BMP_temperature;BMP_pressure;BME280_temperature;BME280_humidity;BME280_pressure;Samples;Min_cycle;Max_cycle;Signal;HPM_P1;HPM_P2
2023/12/21 00:00:19;;;;;;;2.15;2.05;;;;;;;10.15;82.24;99499.84;4986655;28;20723;-51
2023/12/21 00:02:46;;;;;;;2.08;1.98;;;;;;;10.15;81.88;99496.38;4985260;28;20073;-46
2023/12/21 00:05:12;;;;;;;2.88;1.65;;;;;;;10.18;81.78;99496.34;4979075;28;20092;-44
2023/12/21 00:07:42;;;;;;;1.67;1.58;;;;;;;10.21;81.37;99495.47;4980076;28;20047;-49
2023/12/21 00:10:10;;;;;;;2.42;1.80;;;;;;;10.23;81.57;99485.97;4976062;28;20046;-47
2023/12/21 00:12:37;;;;;;;2.13;2.03;;;;;;;10.20;82.22;99483.41;4978943;28;20454;-48
2023/12/21 00:15:04;;;;;;;2.28;1.83;;;;;;;10.25;81.30;99485.06;4982348;28;20057;-49
2023/12/21 00:17:31;;;;;;;1.75;1.65;;;;;;;10.26;81.72;99481.59;4988964;28;20067;-53
2023/12/21 00:19:57;;;;;;;2.25;2.15;;;;;;;10.25;81.49;99479.91;4985857;28;20046;-42
2023/12/21 00:22:24;;;;;;;3.15;3.00;;;;;;;10.26;80.91;99465.19;4989426;28;20128;-46
2023/12/21 00:24:51;;;;;;;2.00;1.80;;;;;;;10.18;81.96;99457.53;4992497;28;20070;-46
2023/12/21 00:27:19;;;;;;;2.08;1.98;;;;;;;10.20;81.47;99450.59;4992771;28;20500;-49
2023/12/21 00:29:45;;;;;;;1.80;1.70;;;;;;;10.24;81.52;99441.09;4999039;28;20055;-52
2023/12/21 00:32:12;;;;;;;2.90;2.70;;;;;;;10.24;81.58;99434.16;4994230;28;20711;-49
2023/12/21 00:34:39;;;;;;;2.13;2.03;;;;;;;10.28;80.97;99428.09;4990953;28;20112;-50
2023/12/21 00:37:06;;;;;;;1.75;1.65;;;;;;;10.29;80.99;99422.03;4986662;28;20081;-46
2023/12/21 00:39:33;;;;;;;2.03;1.75;;;;;;;10.32;81.31;99421.16;4989974;28;20538;-47
2023/12/21 00:42:02;;;;;;;2.03;1.92;;;;;;;10.29;81.65;99418.59;4995156;28;20058;-48
2023/12/21 00:44:28;;;;;;;2.13;1.92;;;;;;;10.32;80.72;99415.09;4996946;28;20050;-47
2023/12/21 00:46:55;;;;;;;2.03;1.92;;;;;;;10.35;80.61;99420.25;4991340;28;20046;-41
2023/12/21 00:49:21;;;;;;;2.38;2.17;;;;;;;10.35;80.95;99418.53;4987772;28;20062;-50
2023/12/21 00:51:48;;;;;;;2.00;1.90;;;;;;;10.39;79.90;99420.19;4996217;28;20050;-47
2023/12/21 00:54:15;;;;;;;1.77;1.67;;;;;;;10.38;80.92;99402.97;4992041;28;20104;-42
2023/12/21 00:56:41;;;;;;;2.85;2.75;;;;;;;10.37;80.01;99400.38;4993548;28;20476;-51
2023/12/21 00:59:08;;;;;;;1.95;1.88;;;;;;;10.36;80.39;99390.88;4993943;28;20060;-47
2023/12/21 01:01:36;;;;;;;2.97;2.25;;;;;;;10.33;79.46;99390.94;4988885;28;20514;-49
2023/12/21 01:04:04;;;;;;;1.98;1.88;;;;;;;10.37;79.76;99379.69;4990654;28;20062;-48
2023/12/21 01:06:31;;;;;;;0.30;0.30;;;;;;;10.42;79.37;99385.66;5001080;28;20445;-44
2023/12/21 01:08:58;;;;;;;1.73;1.63;;;;;;;10.38;80.12;99365.84;4996923;28;20484;-50
2023/12/21 01:11:25;;;;;;;2.30;2.17;;;;;;;10.43;80.11;99355.44;5001420;28;20141;-45
2023/12/21 01:13:52;;;;;;;2.25;2.15;;;;;;;10.38;79.63;99351.19;4992202;28;20046;-44
2023/12/21 01:16:18;;;;;;;2.17;2.08;;;;;;;10.25;79.37;99329.78;4994708;28;20093;-45
2023/12/21 01:18:46;;;;;;;1.70;1.52;;;;;;;10.29;79.63;99341.81;4997470;28;20046;-46
2023/12/21 01:21:14;;;;;;;1.42;1.40;;;;;;;10.16;80.00;99341.09;4993556;28;20081;-45
2023/12/21 01:23:41;;;;;;;3.20;1.95;;;;;;;10.13;79.22;99355.78;4989527;28;20050;-46
2023/12/21 01:26:12;;;;;;;1.95;1.85;;;;;;;10.19;80.04;99350.56;4985094;28;20099;-42
2023/12/21 01:28:42;;;;;;;1.75;1.65;;;;;;;10.11;80.30;99342.03;4985867;28;20053;-46
2023/12/21 01:31:09;;;;;;;1.67;1.58;;;;;;;10.11;80.38;99332.53;4982972;28;20117;-46
2023/12/21 01:33:36;;;;;;;2.25;1.20;;;;;;;10.19;79.45;99335.03;4983410;28;21110;-45
2023/12/21 01:36:08;;;;;;;1.83;1.73;;;;;;;10.12;79.80;99308.38;4985032;28;20061;-48
2023/12/21 01:38:34;;;;;;;1.60;1.50;;;;;;;10.23;80.11;99321.16;4983329;28;20104;-45
2023/12/21 01:41:01;;;;;;;1.85;1.75;;;;;;;10.15;79.36;99323.00;4995497;28;20046;-47
2023/12/21 01:43:29;;;;;;;1.75;1.65;;;;;;;10.18;79.39;99297.09;4984208;28;20072;-49
2023/12/21 01:45:58;;;;;;;1.90;1.75;;;;;;;10.21;79.25;99265.13;4983866;28;20161;-46
2023/12/21 01:48:29;;;;;;;2.53;2.00;;;;;;;10.19;79.82;99266.88;4980676;28;20137;-52
2023/12/21 01:50:58;;;;;;;3.50;2.03;;;;;;;10.19;79.09;99236.69;4981653;28;20078;-52
2023/12/21 01:53:25;;;;;;;1.85;1.75;;;;;;;10.16;79.15;99253.13;4987814;28;20495;-45
2023/12/21 01:55:52;;;;;;;2.60;2.45;;;;;;;10.16;79.88;99257.41;4991703;28;20604;-45
2023/12/21 01:58:19;;;;;;;1.60;1.50;;;;;;;10.17;78.75;99243.63;4996297;28;20046;-49
2023/12/21 02:00:46;;;;;;;2.08;1.98;;;;;;;10.13;79.84;99241.94;4993253;28;20093;-51
2023/12/21 02:03:13;;;;;;;2.15;1.95;;;;;;;10.12;79.72;99250.56;4981864;28;20057;-51
2023/12/21 02:05:39;;;;;;;4.20;3.92;;;;;;;10.09;78.57;99250.63;4981783;28;20051;-50
2023/12/21 02:08:06;;;;;;;1.70;1.60;;;;;;;10.12;79.58;99255.75;4983841;28;20064;-44
2023/12/21 02:10:33;;;;;;;2.05;1.92;;;;;;;10.05;79.45;99262.75;4986656;28;20058;-46
2023/12/21 02:13:00;;;;;;;2.47;2.28;;;;;;;10.11;79.00;99279.94;4989183;28;20053;-43
2023/12/21 02:15:27;;;;;;;1.60;1.50;;;;;;;10.12;79.13;99282.50;4991251;28;20096;-48
2023/12/21 02:17:55;;;;;;;2.22;2.13;;;;;;;10.10;78.73;99279.06;4987129;28;20046;-53
2023/12/21 02:20:22;;;;;;;1.45;1.40;;;;;;;10.03;78.17;99283.47;4981775;28;20054;-43
2023/12/21 02:22:50;;;;;;;2.38;2.28;;;;;;;10.12;78.33;99281.63;4983901;28;20053;-48
2023/12/21 02:25:19;;;;;;;1.92;1.58;;;;;;;10.13;78.82;99288.50;4983033;28;20139;-47
2023/12/21 02:27:49;;;;;;;1.75;1.65;;;;;;;10.14;78.12;99277.31;4981056;28;20077;-50
2023/12/21 02:30:17;;;;;;;2.72;2.08;;;;;;;10.13;78.13;99262.63;4981211;28;20069;-41
2023/12/21 02:32:45;;;;;;;3.40;2.03;;;;;;;10.14;78.17;99259.19;4982256;28;20089;-50
2023/12/21 02:35:15;;;;;;;3.17;2.97;;;;;;;10.19;77.52;99252.22;4988776;28;20058;-48
2023/12/21 02:37:41;;;;;;;1.90;1.80;;;;;;;10.19;78.10;99247.03;4986254;28;20052;-47
2023/12/21 02:40:09;;;;;;;2.03;1.92;;;;;;;10.22;78.68;99262.53;4993041;28;20050;-45
2023/12/21 02:42:35;;;;;;;1.83;1.73;;;;;;;10.23;78.17;99268.56;4987869;28;20050;-44
2023/12/21 02:45:04;;;;;;;1.77;1.67;;;;;;;10.26;77.60;99274.53;4994324;28;20050;-48
2023/12/21 02:47:30;;;;;;;1.77;1.67;;;;;;;10.20;78.02;99276.38;4988941;28;20046;-45
2023/12/21 02:49:57;;;;;;;2.22;2.05;;;;;;;10.21;78.89;99271.19;4992629;28;20046;-48
2023/12/21 02:52:23;;;;;;;3.05;2.30;;;;;;;10.23;78.58;99264.22;4995198;28;20054;-45
2023/12/21 02:54:50;;;;;;;2.17;2.08;;;;;;;10.24;78.49;99249.56;4991898;28;20471;-50
2023/12/21 02:57:17;;;;;;;2.80;2.55;;;;;;;10.30;78.23;99254.63;4987087;28;20582;-50
2023/12/21 02:59:44;;;;;;;3.30;3.10;;;;;;;10.24;78.54;99268.53;4992248;28;20065;-49
2023/12/21 03:02:10;;;;;;;1.92;1.83;;;;;;;10.32;78.23;99271.00;4970534;28;20050;-49
2023/12/21 03:04:37;;;;;;;3.10;1.65;;;;;;;10.34;79.17;99268.41;4976869;28;20517;-50
2023/12/21 03:07:06;;;;;;;1.65;1.55;;;;;;;10.28;78.74;99257.28;4991126;28;20490;-50
2023/12/21 03:09:33;;;;;;;1.55;1.45;;;;;;;10.33;79.07;99251.19;4997100;28;20461;-49
2023/12/21 03:11:59;;;;;;;1.70;1.60;;;;;;;10.33;79.15;99252.00;5001549;28;20045;-52
2023/12/21 03:14:27;;;;;;;2.75;2.25;;;;;;;10.31;79.83;99243.44;4985762;28;20042;-48
2023/12/21 03:16:54;;;;;;;2.17;2.08;;;;;;;10.31;79.93;99237.38;4987820;28;20695;-44
2023/12/21 03:19:20;;;;;;;1.70;1.60;;;;;;;10.33;80.02;99240.81;4992954;28;20046;-43
2023/12/21 03:21:47;;;;;;;2.20;1.70;;;;;;;10.30;79.39;99223.56;4993878;28;20133;-43
2023/12/21 03:24:14;;;;;;;2.03;1.85;;;;;;;10.33;79.60;99222.69;4990080;28;20056;-47
2023/12/21 03:26:43;;;;;;;2.17;1.25;;;;;;;10.33;79.25;99202.00;4991305;28;20046;-47
2023/12/21 03:29:09;;;;;;;2.05;1.83;;;;;;;10.33;78.98;99212.34;4989295;28;20058;-45
2023/12/21 03:31:36;;;;;;;1.83;1.52;;;;;;;10.33;78.49;99209.75;4979096;28;20496;-48
2023/12/21 03:34:03;;;;;;;3.03;1.58;;;;;;;10.33;79.58;99187.31;4986527;28;20519;-47
2023/12/21 03:36:30;;;;;;;1.92;1.80;;;;;;;10.33;79.00;99170.94;4992636;28;20132;-43
2023/12/21 03:38:56;;;;;;;2.17;1.60;;;;;;;10.37;79.07;99172.59;4984222;28;20042;-48
2023/12/21 03:41:23;;;;;;;0.93;0.50;;;;;;;10.29;79.29;99155.44;4982232;28;20487;-49
2023/12/21 03:43:49;;;;;;;2.65;2.42;;;;;;;10.34;79.13;99150.19;4980051;28;20061;-42
2023/12/21 03:46:16;;;;;;;1.73;1.63;;;;;;;10.35;78.74;99131.19;4981708;28;20061;-51
2023/12/21 03:48:43;;;;;;;1.70;1.60;;;;;;;10.41;78.40;99115.53;4982812;28;20477;-45
2023/12/21 03:51:09;;;;;;;1.88;1.77;;;;;;;10.43;78.53;99102.59;4983858;28;20050;-44
2023/12/21 03:53:36;;;;;;;1.80;1.70;;;;;;;10.39;78.04;99095.75;4980432;28;20132;-46
2023/12/21 03:56:03;;;;;;;1.65;1.55;;;;;;;10.51;78.05;99086.97;4982514;28;20057;-47
2023/12/21 03:58:30;;;;;;;2.13;2.03;;;;;;;10.48;78.29;99084.41;4984441;28;20058;-52
2023/12/21 04:00:56;;;;;;;2.30;2.20;;;;;;;10.58;77.87;99092.88;4983372;28;20078;-50
2023/12/21 04:03:23;;;;;;;1.52;1.42;;;;;;;10.58;78.59;99082.50;4983807;28;20563;-50
2023/12/21 04:05:50;;;;;;;2.20;1.58;;;;;;;10.58;78.76;99073.03;4985096;28;20069;-48
2023/12/21 04:08:21;;;;;;;2.05;1.90;;;;;;;10.58;78.17;99077.34;4990419;28;20129;-49
2023/12/21 04:10:47;;;;;;;1.85;1.75;;;;;;;10.59;78.80;99084.22;4986873;28;20042;-47
2023/12/21 04:13:15;;;;;;;3.00;2.80;;;;;;;10.54;78.37;99086.91;4983546;28;20129;-52
2023/12/21 04:15:41;;;;;;;2.00;1.90;;;;;;;10.60;77.73;99071.25;4970807;28;20058;-47
2023/12/21 04:18:09;;;;;;;2.10;1.98;;;;;;;10.60;78.70;99060.06;4992061;28;20479;-47
2023/12/21 04:20:35;;;;;;;1.75;1.65;;;;;;;10.65;78.23;99047.84;4984943;28;20042;-48
2023/12/21 04:23:02;;;;;;;2.40;2.20;;;;;;;10.64;77.72;99040.97;4988960;28;20052;-48
2023/12/21 04:25:29;;;;;;;1.88;1.55;;;;;;;10.62;78.56;99038.41;4993876;28;20046;-48
2023/12/21 04:27:57;;;;;;;3.00;1.75;;;;;;;10.63;78.04;99034.94;4998002;28;20090;-44
2023/12/21 04:30:23;;;;;;;2.13;2.03;;;;;;;10.65;78.63;99021.97;4988637;28;20194;-46
2023/12/21 04:32:51;;;;;;;1.90;1.80;;;;;;;10.63;79.06;99018.53;4997425;28;20470;-46
2023/12/21 04:35:18;;;;;;;2.03;1.92;;;;;;;10.68;78.01;98990.84;4990716;28;20046;-43
2023/12/21 04:37:45;;;;;;;2.00;1.90;;;;;;;10.69;78.42;98991.66;4990822;28;20101;-46
2023/12/21 04:40:13;;;;;;;1.83;1.63;;;;;;;10.67;79.31;98977.03;4991412;28;20416;-52
2023/12/21 04:42:41;;;;;;;3.20;2.95;;;;;;;10.74;78.10;98990.69;4995758;28;20062;-42
2023/12/21 04:45:08;;;;;;;2.65;1.48;;;;;;;10.69;79.18;98987.34;4991935;28;20054;-51
2023/12/21 04:47:36;;;;;;;2.47;2.28;;;;;;;10.65;80.12;98970.19;4994568;28;20038;-46
2023/12/21 04:50:03;;;;;;;2.15;1.88;;;;;;;10.59;79.76;98985.81;4984744;28;20049;-48
2023/12/21 04:52:30;;;;;;;2.58;2.38;;;;;;;10.66;80.17;98962.38;4987575;28;20070;-51
2023/12/21 04:54:57;;;;;;;1.50;0.50;;;;;;;10.61;80.64;98973.72;4996402;28;20597;-47
2023/12/21 04:57:23;;;;;;;2.22;2.03;;;;;;;10.64;79.37;98989.19;4995378;28;20479;-53
2023/12/21 04:59:50;;;;;;;1.75;1.65;;;;;;;10.56;80.13;99004.00;4990386;28;20049;-52
2023/12/21 05:02:17;;;;;;;1.60;1.52;;;;;;;10.46;81.75;99011.97;4991300;28;20046;-46
2023/12/21 05:04:44;;;;;;;1.85;0.70;;;;;;;10.51;81.47;99004.13;4990335;28;20550;-47
2023/12/21 05:07:11;;;;;;;1.70;1.60;;;;;;;10.53;81.51;99013.56;4984279;28;20046;-46
2023/12/21 05:09:38;;;;;;;2.15;2.05;;;;;;;10.59;80.89;99016.91;5003134;28;20053;-42
2023/12/21 05:12:05;;;;;;;2.03;1.92;;;;;;;10.57;80.83;99003.13;4990049;28;20118;-48
2023/12/21 05:14:32;;;;;;;1.92;1.83;;;;;;;10.57;80.57;98997.97;4987630;28;20693;-50
2023/12/21 05:16:59;;;;;;;0.50;0.38;;;;;;;10.60;81.32;98969.44;4989343;28;20507;-51
2023/12/21 05:19:26;;;;;;;1.90;1.80;;;;;;;10.69;81.10;98961.47;4985112;28;20050;-43
2023/12/21 05:21:52;;;;;;;2.22;2.13;;;;;;;10.63;80.38;98940.84;4994475;28;20488;-45
2023/12/21 05:24:19;;;;;;;3.35;2.05;;;;;;;10.69;81.11;98951.09;4992827;28;20097;-45
2023/12/21 05:26:46;;;;;;;1.88;1.77;;;;;;;10.78;79.99;98935.34;4991654;28;20093;-50
2023/12/21 05:29:12;;;;;;;2.05;1.95;;;;;;;10.75;80.68;98945.81;4991494;28;20073;-48
2023/12/21 05:31:41;;;;;;;1.77;0.40;;;;;;;10.86;79.98;98936.94;4979889;28;20567;-44
2023/12/21 05:34:08;;;;;;;4.20;2.20;;;;;;;10.89;79.60;98935.13;4990016;28;20101;-46
2023/12/21 05:36:36;;;;;;;2.58;2.47;;;;;;;10.93;79.93;98925.53;4987608;28;20113;-53
2023/12/21 05:39:03;;;;;;;2.80;2.60;;;;;;;10.87;79.04;98918.75;4997228;28;20053;-45
2023/12/21 05:41:42;;;;;;;1.60;1.52;;;;;;;10.99;79.62;98912.47;4992295;28;20069;-45
2023/12/21 05:44:09;;;;;;;1.85;1.75;;;;;;;11.06;78.67;98897.63;4993029;28;20108;-49
2023/12/21 05:46:36;;;;;;;2.08;1.98;;;;;;;11.03;79.04;98902.88;4988777;28;20065;-48
2023/12/21 05:49:02;;;;;;;1.95;1.85;;;;;;;11.00;79.71;98903.81;4995322;28;20137;-51
2023/12/21 05:51:31;;;;;;;3.53;1.48;;;;;;;11.04;79.13;98894.19;4989807;28;20120;-52
2023/12/21 05:53:57;;;;;;;2.58;2.10;;;;;;;11.08;79.21;98885.47;4987540;28;20475;-45
2023/12/21 05:56:24;;;;;;;2.28;2.13;;;;;;;11.07;79.51;98885.53;4989637;28;20069;-47
2023/12/21 05:58:51;;;;;;;1.88;1.60;;;;;;;11.07;79.06;98869.97;4986567;28;20057;-50
2023/12/21 06:01:18;;;;;;;1.73;1.63;;;;;;;11.10;79.41;98878.53;4976137;28;20090;-45
2023/12/21 06:03:44;;;;;;;2.05;1.95;;;;;;;11.15;78.31;98860.28;4985995;28;20045;-48
2023/12/21 06:06:13;;;;;;;2.28;2.17;;;;;;;11.21;78.20;98878.25;4982705;28;20054;-46
2023/12/21 06:08:41;;;;;;;1.75;1.65;;;;;;;11.15;78.70;98896.56;4989576;28;20073;-42
2023/12/21 06:11:08;;;;;;;2.10;1.85;;;;;;;11.20;79.41;98889.53;4983566;28;20077;-49
2023/12/21 06:13:35;;;;;;;2.42;2.15;;;;;;;11.25;78.62;98872.09;4992883;28;20053;-42
2023/12/21 06:16:02;;;;;;;3.05;2.85;;;;;;;11.29;78.96;98884.09;4983656;28;20082;-48
2023/12/21 06:18:29;;;;;;;2.55;2.35;;;;;;;11.34;78.91;98885.75;4979213;28;20055;-47
2023/12/21 06:20:55;;;;;;;1.60;1.50;;;;;;;11.31;78.35;98879.75;4987205;28;20054;-49
2023/12/21 06:23:23;;;;;;;1.55;1.48;;;;;;;11.35;79.13;98887.44;4994894;28;20057;-44
2023/12/21 06:25:49;;;;;;;2.10;1.58;;;;;;;11.41;78.50;98895.06;4993514;28;20042;-47
2023/12/21 06:28:16;;;;;;;1.75;1.65;;;;;;;11.40;79.00;98890.78;4995224;28;20056;-49
2023/12/21 06:30:43;;;;;;;1.52;1.42;;;;;;;11.43;78.96;98896.75;4986723;28;20050;-44
2023/12/21 06:33:09;;;;;;;1.35;1.35;;;;;;;11.41;79.09;98913.19;4992541;28;20411;-45
2023/12/21 06:35:36;;;;;;;1.88;1.77;;;;;;;11.39;78.85;98910.66;4989587;28;20467;-47
2023/12/21 06:38:03;;;;;;;1.63;1.55;;;;;;;11.34;78.62;98909.91;4984980;28;20412;-46
2023/12/21 06:40:31;;;;;;;2.08;1.98;;;;;;;11.40;79.61;98929.66;4992957;28;20049;-42
2023/12/21 06:42:58;;;;;;;2.28;1.95;;;;;;;11.39;78.90;98922.78;4993130;28;20073;-50
2023/12/21 06:45:25;;;;;;;2.10;1.98;;;;;;;11.33;80.01;98926.38;4989389;28;20112;-47
2023/12/21 06:47:52;;;;;;;2.17;1.63;;;;;;;11.44;79.87;98913.13;4987296;28;20049;-47
2023/12/21 06:50:20;;;;;;;1.77;1.67;;;;;;;11.45;78.78;98925.19;4992072;28;20495;-52
2023/12/21 06:52:47;;;;;;;2.25;2.15;;;;;;;11.45;79.14;98940.75;4992801;28;20053;-50
2023/12/21 06:55:14;;;;;;;1.85;1.75;;;;;;;11.50;78.85;98949.31;4987779;28;20085;-50
2023/12/21 06:57:41;;;;;;;3.03;2.83;;;;;;;11.46;78.75;98944.22;4988099;28;20049;-50
2023/12/21 07:00:09;;;;;;;1.98;1.88;;;;;;;11.44;79.34;98919.19;4985025;28;20050;-44
2023/12/21 07:02:36;;;;;;;4.63;2.00;;;;;;;11.51;78.15;98925.06;4991458;28;20059;-47
2023/12/21 07:05:04;;;;;;;1.13;1.10;;;;;;;11.57;77.97;98914.56;4993543;28;20544;-47
2023/12/21 07:07:31;;;;;;;2.35;1.77;;;;;;;11.59;78.42;98911.06;4983558;28;20069;-52
2023/12/21 07:09:57;;;;;;;1.67;1.58;;;;;;;11.53;78.82;98923.31;4992052;28;20048;-41
2023/12/21 07:12:26;;;;;;;2.97;1.98;;;;;;;11.62;78.08;98931.72;4988491;28;20054;-49
2023/12/21 07:14:54;;;;;;;1.63;1.52;;;;;;;11.60;77.99;98910.16;4992331;28;20046;-42
2023/12/21 07:17:20;;;;;;;3.50;1.80;;;;;;;11.65;78.30;98905.72;4981713;28;20133;-44
2023/12/21 07:19:47;;;;;;;2.47;2.28;;;;;;;11.66;77.98;98933.34;4991628;28;20069;-49
2023/12/21 07:22:13;;;;;;;2.50;2.38;;;;;;;11.72;78.17;98919.38;4982183;28;20392;-51
2023/12/21 07:24:40;;;;;;;2.35;2.10;;;;;;;11.68;77.93;98892.66;4991060;28;20054;-49
2023/12/21 07:27:07;;;;;;;2.08;1.88;;;;;;;11.71;77.34;98900.38;4986419;28;20495;-41
2023/12/21 07:29:33;;;;;;;4.60;2.05;;;;;;;11.75;78.05;98901.97;4990832;28;20069;-49
2023/12/21 07:32:00;;;;;;;2.47;2.38;;;;;;;11.75;77.14;98922.75;4996988;28;20061;-52
2023/12/21 07:34:28;;;;;;;3.67;1.70;;;;;;;11.77;77.62;98918.38;5001395;28;20080;-49
2023/12/21 07:36:55;;;;;;;1.67;0.50;;;;;;;11.75;77.59;98922.75;4997568;28;20467;-43
2023/12/21 07:39:23;;;;;;;2.33;2.22;;;;;;;11.73;77.34;98932.31;4988098;28;20054;-50
2023/12/21 07:41:49;;;;;;;2.45;2.17;;;;;;;11.73;77.30;98913.28;4997924;28;20046;-51
2023/12/21 07:44:16;;;;;;;1.55;1.50;;;;;;;11.74;77.33;98905.47;4999205;28;20419;-43
2023/12/21 07:46:43;;;;;;;1.90;1.80;;;;;;;11.80;76.25;98910.53;4988697;28;20056;-50
2023/12/21 07:49:09;;;;;;;1.52;1.42;;;;;;;11.81;76.81;98917.41;4990346;28;20050;-50
2023/12/21 07:51:36;;;;;;;0.50;0.38;;;;;;;11.78;75.93;98922.66;4989167;28;20498;-52
2023/12/21 07:54:03;;;;;;;1.80;1.65;;;;;;;11.83;76.47;98962.31;4990294;28;20053;-44
2023/12/21 07:56:30;;;;;;;1.65;1.55;;;;;;;11.75;75.65;98937.47;4989910;28;20050;-51
2023/12/21 07:58:57;;;;;;;1.80;0.68;;;;;;;11.71;74.02;98921.13;4985340;28;20444;-54
2023/12/21 08:01:24;;;;;;;3.60;3.45;;;;;;;11.76;74.63;98914.06;4982035;28;20520;-50
2023/12/21 08:03:52;;;;;;;1.98;1.88;;;;;;;11.87;74.88;98931.09;4988364;28;20065;-53
2023/12/21 08:06:20;;;;;;;1.88;1.77;;;;;;;11.86;74.68;98921.63;4989021;28;20488;-48
2023/12/21 08:08:48;;;;;;;2.10;2.00;;;;;;;11.80;74.31;98920.91;4984327;28;20553;-49
2023/12/21 08:11:23;;;;;;;1.20;1.20;;;;;;;11.86;73.24;98925.06;4982058;28;20050;-48
2023/12/21 08:13:52;;;;;;;2.13;2.03;;;;;;;11.91;73.64;98917.16;4988300;28;20050;-51
2023/12/21 08:16:19;;;;;;;1.52;1.45;;;;;;;11.89;73.24;98872.25;4991223;28;20695;-51
2023/12/21 08:18:45;;;;;;;1.30;1.30;;;;;;;11.80;73.13;98920.03;4982935;28;20050;-49
2023/12/21 08:21:12;;;;;;;5.20;3.67;;;;;;;11.90;73.51;98920.66;4986795;28;20054;-50
2023/12/21 08:23:39;;;;;;;2.08;1.92;;;;;;;11.94;73.12;98898.91;4988773;28;20048;-51
2023/12/21 08:26:08;;;;;;;2.42;2.22;;;;;;;11.95;73.66;98898.00;4986320;28;20077;-47
2023/12/21 08:28:34;;;;;;;1.38;1.38;;;;;;;11.83;73.17;98889.66;4983730;28;20055;-47
2023/12/21 08:31:01;;;;;;;1.88;1.77;;;;;;;11.82;72.84;98871.53;4988481;28;20050;-45
2023/12/21 08:33:29;;;;;;;2.30;2.15;;;;;;;11.90;72.54;98879.13;4985567;28;20053;-53
2023/12/21 08:35:57;;;;;;;2.08;1.98;;;;;;;11.87;72.66;98874.03;4988462;28;20141;-48
2023/12/21 08:38:25;;;;;;;1.83;1.70;;;;;;;11.84;72.41;98885.34;4986901;28;20046;-45
2023/12/21 08:40:51;;;;;;;2.00;1.90;;;;;;;11.96;73.12;98899.72;4983770;28;20042;-50
2023/12/21 08:43:18;;;;;;;2.60;2.40;;;;;;;11.90;71.52;98868.75;4986561;28;20057;-53
2023/12/21 08:45:45;;;;;;;3.72;2.05;;;;;;;11.91;73.30;98865.25;4982741;28;20066;-48
2023/12/21 08:48:11;;;;;;;2.38;1.60;;;;;;;11.94;72.23;98896.31;4997287;28;20105;-50
2023/12/21 08:50:38;;;;;;;2.10;1.95;;;;;;;11.97;71.76;98875.47;4987792;28;20137;-46
2023/12/21 08:53:05;;;;;;;1.83;1.73;;;;;;;11.99;72.98;98899.63;4985531;28;20054;-42
2023/12/21 08:55:31;;;;;;;2.95;2.67;;;;;;;12.05;72.93;98896.88;4995849;28;20046;-47
2023/12/21 08:57:58;;;;;;;2.38;2.15;;;;;;;11.95;71.81;98867.72;4987125;28;20109;-49
2023/12/21 09:00:28;;;;;;;3.15;2.95;;;;;;;11.91;72.46;98881.69;4991585;28;20050;-44
2023/12/21 09:02:55;;;;;;;1.88;1.77;;;;;;;11.98;72.94;98900.53;5000436;28;20054;-46
2023/12/21 09:05:23;;;;;;;0.65;0.40;;;;;;;12.02;72.88;98885.75;4998514;28;20556;-48
2023/12/21 09:07:50;;;;;;;1.92;1.60;;;;;;;11.95;72.66;98874.66;4983393;28;20050;-48
2023/12/21 09:10:18;;;;;;;1.58;1.50;;;;;;;11.94;71.80;98880.75;4984320;28;20061;-46
2023/12/21 09:12:44;;;;;;;3.97;2.08;;;;;;;12.01;72.46;98887.47;4988609;28;20055;-47
2023/12/21 09:15:12;;;;;;;2.45;2.35;;;;;;;11.95;72.91;98874.66;4987571;28;20050;-47
2023/12/21 09:17:38;;;;;;;1.08;1.08;;;;;;;11.94;71.55;98867.78;4985659;28;20132;-49
2023/12/21 09:20:08;;;;;;;3.15;3.00;;;;;;;12.01;72.48;98871.91;4995939;28;20050;-47
2023/12/21 09:22:36;;;;;;;3.15;1.42;;;;;;;12.05;72.32;98873.53;4987303;28;20116;-44
2023/12/21 09:25:04;;;;;;;2.20;1.88;;;;;;;12.02;70.94;98858.03;4986258;28;20074;-45
2023/12/21 09:27:32;;;;;;;1.98;1.80;;;;;;;12.06;70.87;98874.41;4987253;28;20050;-49
2023/12/21 09:30:00;;;;;;;0.25;0.22;;;;;;;12.04;71.03;98877.00;4990184;28;20448;-49
2023/12/21 09:32:27;;;;;;;2.75;2.40;;;;;;;11.94;70.41;98880.75;4999537;28;20054;-45
2023/12/21 09:34:54;;;;;;;1.45;1.35;;;;;;;12.12;71.88;98887.19;4989118;28;20143;-50
2023/12/21 09:37:21;;;;;;;1.48;1.38;;;;;;;12.16;71.11;98880.19;4986925;28;20051;-50
2023/12/21 09:39:48;;;;;;;0.70;0.40;;;;;;;12.13;71.40;98885.47;4981923;28;20572;-47
2023/12/21 09:42:15;;;;;;;1.65;1.55;;;;;;;12.15;70.59;98879.34;4997563;28;20042;-45
2023/12/21 09:44:49;;;;;;;1.85;1.60;;;;;;;12.04;69.94;98878.75;4994007;28;20430;-50
2023/12/21 09:47:19;;;;;;;3.92;2.42;;;;;;;12.00;70.50;98865.03;4978593;28;20101;-50
2023/12/21 09:49:50;;;;;;;1.90;1.80;;;;;;;12.13;70.13;98875.09;4991919;28;20041;-52
2023/12/21 09:52:18;;;;;;;2.15;2.05;;;;;;;12.03;70.67;98870.09;4990420;28;20123;-42
2023/12/21 09:54:50;;;;;;;2.05;1.95;;;;;;;12.01;71.15;98855.47;4993119;28;20129;-47
2023/12/21 09:57:18;;;;;;;3.05;2.08;;;;;;;12.08;70.21;98894.25;4991266;28;20065;-44
2023/12/21 09:59:44;;;;;;;2.38;1.92;;;;;;;12.05;70.92;98894.28;4986494;28;20042;-44
2023/12/21 10:02:12;;;;;;;2.13;2.03;;;;;;;12.02;70.02;98894.34;4989729;28;20415;-48
2023/12/21 10:04:42;;;;;;;1.83;1.73;;;;;;;12.08;70.05;98924.53;4986881;28;20064;-45
2023/12/21 10:07:09;;;;;;;1.88;1.77;;;;;;;12.10;70.21;98919.28;4986932;28;20511;-47
2023/12/21 10:09:37;;;;;;;2.72;2.55;;;;;;;12.11;70.00;98913.19;4989659;28;20046;-51
2023/12/21 10:12:05;;;;;;;1.90;1.80;;;;;;;12.10;69.87;98914.09;4994086;28;20058;-44
2023/12/21 10:14:31;;;;;;;2.28;2.17;;;;;;;11.99;69.92;98898.78;4991083;28;20042;-44
2023/12/21 10:16:59;;;;;;;11.95;3.83;;;;;;;12.14;69.77;98902.72;4987157;28;20057;-45
2023/12/21 10:19:25;;;;;;;3.47;3.28;;;;;;;11.98;70.04;98912.63;4993593;28;20046;-54
2023/12/21 10:21:53;;;;;;;1.77;1.67;;;;;;;12.06;70.79;98911.59;4987176;28;20416;-46
2023/12/21 10:24:20;;;;;;;2.22;2.13;;;;;;;12.06;70.99;98916.78;4981552;28;20058;-45
2023/12/21 10:26:47;;;;;;;2.40;2.30;;;;;;;12.00;69.52;98908.28;4976214;28;20089;-46
2023/12/21 10:29:20;;;;;;;1.92;1.83;;;;;;;11.95;70.33;98924.81;4984156;28;20046;-46
2023/12/21 10:31:48;;;;;;;2.40;2.17;;;;;;;12.14;69.66;98924.38;4987393;28;20046;-44
2023/12/21 10:34:16;;;;;;;1.67;1.58;;;;;;;12.00;68.91;98914.31;4990766;28;20046;-49
2023/12/21 10:36:45;;;;;;;3.97;2.15;;;;;;;12.04;69.56;98908.16;4985649;28;20506;-53
2023/12/21 10:39:12;;;;;;;1.63;1.50;;;;;;;12.13;69.76;98937.38;4987918;28;20598;-48
2023/12/21 10:41:42;;;;;;;2.47;2.35;;;;;;;12.03;68.99;98937.56;4989723;28;20042;-46
2023/12/21 10:44:10;;;;;;;1.88;1.77;;;;;;;12.03;68.97;98937.56;4985079;28;20056;-50
2023/12/21 10:46:38;;;;;;;2.13;2.03;;;;;;;12.02;68.88;98950.63;4990703;28;20444;-49
2023/12/21 10:49:07;;;;;;;1.65;1.55;;;;;;;11.98;68.95;98942.03;4987109;28;20046;-49
2023/12/21 10:51:39;;;;;;;1.13;1.13;;;;;;;12.14;69.24;98946.84;4998762;28;20141;-44
2023/12/21 10:54:08;;;;;;;2.60;2.40;;;;;;;12.07;69.32;98948.78;4984162;28;20065;-45
2023/12/21 10:56:38;;;;;;;1.65;1.45;;;;;;;12.00;69.33;98935.09;4963253;28;20047;-47
2023/12/21 10:59:08;;;;;;;;;;;;;;;11.88;68.47;98920.69;4980858;28;20073;-49
2023/12/21 11:01:36;;;;;;;2.08;1.98;;;;;;;12.05;69.12;98930.63;4980488;28;19953;-49
2023/12/21 11:04:04;;;;;;;2.20;1.50;;;;;;;12.06;67.94;98947.91;4981873;28;20112;-50
2023/12/21 11:06:34;;;;;;;2.20;2.10;;;;;;;12.09;67.76;98941.78;4979787;28;20046;-51
2023/12/21 11:09:06;;;;;;;2.72;2.58;;;;;;;12.07;66.78;98917.63;4980237;28;20049;-50
2023/12/21 11:11:34;;;;;;;2.38;2.13;;;;;;;12.17;67.52;98946.78;4986891;28;20056;-46
2023/12/21 11:14:01;;;;;;;2.10;1.90;;;;;;;12.17;66.98;98957.16;4982753;28;20050;-49
2023/12/21 11:16:35;;;;;;;1.90;1.77;;;;;;;12.17;65.69;98951.97;4985205;28;20047;-49
2023/12/21 11:19:06;;;;;;;2.80;1.90;;;;;;;12.26;66.49;98961.25;4990890;28;20141;-48
2023/12/21 11:21:34;;;;;;;3.33;3.03;;;;;;;12.15;66.64;98961.53;4999260;28;20053;-44
2023/12/21 11:24:02;;;;;;;2.20;2.00;;;;;;;12.32;66.53;98969.72;4991843;28;20050;-42
2023/12/21 11:26:29;;;;;;;3.78;1.77;;;;;;;12.30;66.59;98971.50;4992544;28;20416;-49
2023/12/21 11:29:05;;;;;;;2.95;2.75;;;;;;;12.36;66.90;98974.84;4987656;28;20100;-48
2023/12/21 11:31:37;;;;;;;2.83;1.58;;;;;;;12.31;66.27;98951.59;4985243;28;20061;-43
2023/12/21 11:34:13;;;;;;;2.92;1.63;;;;;;;12.40;66.38;98971.28;4994716;28;20126;-46